createdAt,value
2022-12-23T00:02:31.635Z,13.2
2022-12-23T00:08:05.638Z,10.7
2022-12-23T00:13:32.223Z,9.6
2022-12-23T00:18:54.907Z,9.6
2022-12-23T00:24:44.976Z,9.6
2022-12-23T00:30:02.267Z,10.7
2022-12-23T00:35:38.158Z,8.4
2022-12-23T00:41:03.598Z,10.7
2022-12-23T00:46:50.125Z,9.6
2022-12-23T00:52:30.310Z,9.6
2022-12-23T00:57:52.017Z,10.7
2022-12-23T01:03:26.420Z,11.9
2022-12-23T01:08:44.900Z,9.6
2022-12-23T01:14:43.612Z,11.9
2022-12-23T01:20:16.521Z,11.9
2022-12-23T01:25:42.350Z,13.2
2022-12-23T01:31:15.017Z,10.7
2022-12-23T01:36:35.747Z,9.6
2022-12-23T01:42:10.573Z,9.6
2022-12-23T01:47:37.169Z,7.2
2022-12-23T01:53:38.081Z,7.2
2022-12-23T01:59:11.466Z,10.7
2022-12-23T02:04:43.307Z,9.6
2022-12-23T02:10:12.977Z,8.4
2022-12-23T02:15:22.688Z,8.4
2022-12-23T02:21:17.126Z,8.4
2022-12-23T02:26:34.546Z,8.4
2022-12-23T02:32:13.396Z,10.7
2022-12-23T02:37:35.719Z,10.7
2022-12-23T02:43:31.379Z,8.4
2022-12-23T02:48:58.331Z,10.7
2022-12-23T02:54:36.151Z,11.9
2022-12-23T02:59:52.678Z,13.2
2022-12-23T03:05:21.481Z,10.7
2022-12-23T03:11:14.144Z,9.6
2022-12-23T03:16:40.239Z,8.4
2022-12-23T03:22:01.301Z,8.4
2022-12-23T03:27:40.814Z,8.4
2022-12-23T03:33:23.355Z,5.9
2022-12-23T03:38:41.360Z,8.4
2022-12-23T03:44:25.293Z,9.6
2022-12-23T03:49:56.208Z,8.4
2022-12-23T03:55:37.310Z,8.4
2022-12-23T04:01:12.339Z,8.4
2022-12-23T04:06:30.437Z,7.2
2022-12-23T04:12:08.796Z,9.6
2022-12-23T04:17:43.037Z,8.4
2022-12-23T04:23:04.448Z,9.6
2022-12-23T04:28:38.029Z,9.6
2022-12-23T04:34:34.311Z,9.6
2022-12-23T04:39:45.671Z,8.4
2022-12-23T04:45:20.069Z,9.6
2022-12-23T04:51:11.092Z,9.6
2022-12-23T04:56:35.023Z,8.4
2022-12-23T05:02:15.320Z,9.6
2022-12-23T05:07:37.745Z,8.4
2022-12-23T05:13:19.300Z,9.6
2022-12-23T05:18:59.571Z,9.6
2022-12-23T05:24:15.711Z,7.2
2022-12-23T05:29:44.409Z,9.6
2022-12-23T05:35:44.331Z,10.7
2022-12-23T05:41:12.045Z,11.9
2022-12-23T05:52:11.324Z,14.4
2022-12-23T05:57:53.398Z,11.9
2022-12-23T06:03:14.530Z,11.9
2022-12-23T06:08:48.270Z,13.2
2022-12-23T06:14:21.437Z,10.7
2022-12-23T06:19:59.566Z,9.6
2022-12-23T06:25:20.398Z,10.7
2022-12-23T06:31:04.177Z,10.7
2022-12-23T06:36:35.580Z,11.9
2022-12-23T06:42:24.491Z,11.9
2022-12-23T06:47:39.115Z,10.7
2022-12-23T06:53:22.329Z,9.6
2022-12-23T06:59:01.763Z,9.6
2022-12-23T07:04:22.836Z,9.6
2022-12-23T07:09:56.052Z,9.6
2022-12-23T07:15:23.070Z,9.6
2022-12-23T07:21:01.716Z,8.4
2022-12-23T07:26:44.538Z,10.7
2022-12-23T07:32:05.853Z,13.2
2022-12-23T07:37:49.958Z,11.9
2022-12-23T07:43:22.237Z,11.9
2022-12-23T07:49:01.858Z,9.6
2022-12-23T07:54:18.390Z,9.6
2022-12-23T08:00:02.016Z,9.6
2022-12-23T08:05:38.948Z,7.2
2022-12-23T08:11:02.262Z,9.6
2022-12-23T08:16:28.502Z,9.6
2022-12-23T08:22:19.149Z,8.4
2022-12-23T08:27:29.692Z,10.7
2022-12-23T08:32:58.996Z,10.7
2022-12-23T08:38:36.964Z,8.4
2022-12-23T08:44:09.622Z,7.2
2022-12-23T08:49:57.052Z,8.4
2022-12-23T08:55:34.164Z,9.6
2022-12-23T09:00:53.610Z,8.4
2022-12-23T09:06:28.828Z,7.2
2022-12-23T09:12:16.990Z,10.7
2022-12-23T09:17:26.590Z,9.6
2022-12-23T09:22:58.306Z,10.7
2022-12-23T09:28:34.015Z,10.7
2022-12-23T09:34:17.994Z,9.6
2022-12-23T09:39:49.955Z,10.7
2022-12-23T09:45:22.667Z,8.4
2022-12-23T09:50:53.322Z,9.6
2022-12-23T09:56:25.409Z,9.6
2022-12-23T10:01:58.363Z,10.7
2022-12-23T10:07:25.344Z,9.6
2022-12-23T10:12:57.967Z,10.7
2022-12-23T10:18:50.587Z,10.7
2022-12-23T10:24:07.375Z,8.4
2022-12-23T10:29:38.706Z,9.6
2022-12-23T10:35:31.957Z,9.6
2022-12-23T10:41:12.748Z,9.6
2022-12-23T10:46:40.722Z,11.9
2022-12-23T10:51:53.136Z,11.9
2022-12-23T10:57:43.026Z,9.6
2022-12-23T11:03:15.654Z,9.6
2022-12-23T11:08:45.176Z,11.9
2022-12-23T11:14:30.759Z,10.7
2022-12-23T11:19:43.453Z,9.6
2022-12-23T11:25:34.893Z,9.6
2022-12-23T11:31:02.462Z,11.9
2022-12-23T11:36:17.287Z,9.6
2022-12-23T11:42:04.636Z,10.7
2022-12-23T11:47:32.705Z,10.7
2022-12-23T11:53:10.513Z,11.9
2022-12-23T11:58:45.910Z,11.9
2022-12-23T12:04:21.490Z,13.2
2022-12-23T12:09:57.786Z,14.4
2022-12-23T12:21:08.023Z,11.9
2022-12-23T12:26:33.255Z,14.4
2022-12-23T12:32:13.646Z,11.9
2022-12-23T12:37:26.416Z,13.2
2022-12-23T12:43:15.560Z,10.7
2022-12-23T12:48:47.101Z,10.7
2022-12-23T12:54:27.412Z,10.7
2022-12-23T12:59:51.737Z,10.7
2022-12-23T13:05:25.425Z,10.7
2022-12-23T13:10:54.809Z,9.6
2022-12-23T13:16:27.049Z,11.9
2022-12-23T13:21:50.007Z,10.7
2022-12-23T13:27:46.648Z,10.7
2022-12-23T13:33:19.174Z,10.7
2022-12-23T13:38:37.473Z,13.2
2022-12-23T13:44:18.021Z,15.6
2022-12-23T13:49:58.938Z,14.4
2022-12-23T13:55:19.571Z,11.9
2022-12-23T14:00:51.336Z,11.9
2022-12-23T14:06:20.988Z,9.6
2022-12-23T14:12:04.674Z,11.9
2022-12-23T14:17:26.058Z,11.9
2022-12-23T14:23:23.359Z,11.9
2022-12-23T14:28:42.365Z,14.4
2022-12-23T14:34:25.900Z,14.4
2022-12-23T14:39:49.451Z,13.2
2022-12-23T14:45:28.893Z,13.2
2022-12-23T14:50:58.181Z,10.7
2022-12-23T14:56:19.187Z,11.9
2022-12-23T15:01:58.852Z,11.9
2022-12-23T15:07:30.481Z,14.4
2022-12-23T15:13:14.744Z,15.6
2022-12-23T15:18:33.125Z,13.2
2022-12-23T15:24:19.087Z,11.9
2022-12-23T15:29:47.659Z,14.4
2022-12-23T15:35:19.144Z,11.9
2022-12-23T15:40:40.665Z,13.2
2022-12-23T15:46:13.551Z,13.2
2022-12-23T15:52:12.194Z,11.9
2022-12-23T15:57:51.306Z,11.9
2022-12-23T16:09:01.146Z,10.7
2022-12-23T16:14:08.412Z,13.2
2022-12-23T16:19:59.645Z,13.2
2022-12-23T16:25:12.701Z,13.2
2022-12-23T16:30:55.046Z,11.9
2022-12-23T16:36:36.542Z,13.2
2022-12-23T16:42:07.346Z,13.2
2022-12-23T16:47:28.985Z,13.2
2022-12-23T16:53:07.254Z,11.9
2022-12-23T16:58:35.206Z,15.6
2022-12-23T17:04:13.377Z,14.4
2022-12-23T17:09:59.422Z,13.2
2022-12-23T17:15:35.277Z,13.2
2022-12-23T17:37:55.141Z,14.4
2022-12-23T17:48:47.654Z,13.2
2022-12-23T17:54:29.212Z,14.4
2022-12-23T17:59:50.761Z,14.4
2022-12-23T18:05:33.439Z,15.6
2022-12-23T18:11:11.058Z,14.4
2022-12-23T18:16:27.617Z,14.4
2022-12-23T18:22:16.138Z,14.4
2022-12-23T18:27:35.956Z,11.9
2022-12-23T18:33:30.786Z,13.2
2022-12-23T18:38:47.475Z,11.9
2022-12-23T18:44:29.849Z,9.6
2022-12-23T18:49:47.197Z,10.7
2022-12-23T18:55:40.034Z,13.2
2022-12-23T19:01:06.134Z,9.6
2022-12-23T19:06:37.577Z,9.6
2022-12-23T19:12:18.748Z,10.7
2022-12-23T19:17:30.596Z,10.7
2022-12-23T19:23:20.669Z,10.7
2022-12-23T19:28:56.542Z,8.4
2022-12-23T19:34:18.462Z,8.4
2022-12-23T19:39:54.710Z,8.4
2022-12-23T19:45:31.404Z,8.4
2022-12-23T19:51:15.417Z,8.4
2022-12-23T19:56:38.151Z,8.4
2022-12-23T20:02:07.334Z,11.9
2022-12-23T20:07:35.859Z,13.2
2022-12-23T20:13:27.227Z,13.2
2022-12-23T20:18:43.407Z,10.7
2022-12-23T20:24:31.827Z,10.7
2022-12-23T20:29:54.712Z,10.7
2022-12-23T20:35:31.235Z,9.6
2022-12-23T20:41:07.691Z,10.7
2022-12-23T20:46:25.024Z,9.6
2022-12-23T20:52:09.536Z,9.6
2022-12-23T20:57:34.905Z,11.9
2022-12-23T21:03:22.095Z,14.4
2022-12-23T21:08:51.035Z,14.4
2022-12-23T21:14:10.605Z,13.2
2022-12-23T21:19:48.517Z,11.9
2022-12-23T21:25:39.485Z,10.7
2022-12-23T21:31:05.652Z,10.7
2022-12-23T21:36:46.537Z,9.6
2022-12-23T21:41:57.507Z,10.7
2022-12-23T21:47:50.082Z,10.7
2022-12-23T21:53:04.887Z,10.7
2022-12-23T21:58:46.005Z,11.9
2022-12-23T22:04:11.352Z,9.6
2022-12-23T22:09:49.918Z,10.7
2022-12-23T22:15:37.123Z,11.9
2022-12-23T22:21:14.991Z,10.7
2022-12-23T22:26:38.695Z,9.6
2022-12-23T22:32:07.779Z,10.7
2022-12-23T22:37:36.325Z,7.2
2022-12-23T22:43:32.082Z,8.4
2022-12-23T22:48:54.173Z,11.9
2022-12-23T22:54:18.798Z,10.7
2022-12-23T22:59:54.087Z,8.4
2022-12-23T23:05:26.964Z,7.2
2022-12-23T23:11:14.256Z,7.2
2022-12-23T23:16:42.378Z,8.4
2022-12-23T23:22:22.787Z,8.4
2022-12-23T23:27:37.660Z,10.7
2022-12-23T23:33:22.143Z,9.6
2022-12-23T23:38:50.412Z,8.4
2022-12-23T23:44:11.642Z,9.6
2022-12-23T23:49:57.817Z,8.4
2022-12-23T23:55:29.789Z,8.4
